sensor_id;sensor_type;location;lat;lon;timestamp;P1;durP1;ratioP1;P2;durP2;ratioP2
12425;SDS011;6277;49.824;9.562;2024-02-28T00:02:05;7.95;;;5.60;;
12425;SDS011;6277;49.824;9.562;2024-02-28T00:04:30;6.93;;;4.90;;
12425;SDS011;6277;49.824;9.562;2024-02-28T00:06:56;8.88;;;5.78;;
12425;SDS011;6277;49.824;9.562;2024-02-28T00:09:21;8.43;;;5.55;;
12425;SDS011;6277;49.824;9.562;2024-02-28T00:11:47;9.70;;;6.20;;
12425;SDS011;6277;49.824;9.562;2024-02-28T00:14:12;9.52;;;6.50;;
12425;SDS011;6277;49.824;9.562;2024-02-28T00:16:41;7.63;;;5.80;;
12425;SDS011;6277;49.824;9.562;2024-02-28T00:19:11;8.77;;;6.72;;
12425;SDS011;6277;49.824;9.562;2024-02-28T00:21:37;11.00;;;6.95;;
12425;SDS011;6277;49.824;9.562;2024-02-28T00:24:04;8.93;;;6.53;;
12425;SDS011;6277;49.824;9.562;2024-02-28T00:26:29;9.32;;;6.40;;
12425;SDS011;6277;49.824;9.562;2024-02-28T00:28:55;9.93;;;6.43;;
12425;SDS011;6277;49.824;9.562;2024-02-28T00:31:21;9.27;;;6.13;;
12425;SDS011;6277;49.824;9.562;2024-02-28T00:33:47;9.73;;;6.15;;
12425;SDS011;6277;49.824;9.562;2024-02-28T00:36:12;9.05;;;6.15;;
12425;SDS011;6277;49.824;9.562;2024-02-28T00:38:39;7.97;;;6.00;;
12425;SDS011;6277;49.824;9.562;2024-02-28T00:41:04;8.20;;;5.82;;
12425;SDS011;6277;49.824;9.562;2024-02-28T00:43:30;8.65;;;6.25;;
12425;SDS011;6277;49.824;9.562;2024-02-28T00:45:55;10.40;;;6.65;;
12425;SDS011;6277;49.824;9.562;2024-02-28T00:48:23;10.75;;;6.25;;
12425;SDS011;6277;49.824;9.562;2024-02-28T00:50:48;11.60;;;6.88;;
12425;SDS011;6277;49.824;9.562;2024-02-28T00:53:14;10.07;;;6.45;;
12425;SDS011;6277;49.824;9.562;2024-02-28T00:55:39;9.45;;;6.72;;
12425;SDS011;6277;49.824;9.562;2024-02-28T00:58:05;10.30;;;6.50;;
12425;SDS011;6277;49.824;9.562;2024-02-28T01:00:30;8.57;;;6.03;;
12425;SDS011;6277;49.824;9.562;2024-02-28T01:02:56;9.80;;;6.03;;
12425;SDS011;6277;49.824;9.562;2024-02-28T01:05:21;8.85;;;6.25;;
12425;SDS011;6277;49.824;9.562;2024-02-28T01:07:47;8.00;;;5.57;;
12425;SDS011;6277;49.824;9.562;2024-02-28T01:10:13;7.32;;;5.43;;
12425;SDS011;6277;49.824;9.562;2024-02-28T01:12:38;9.30;;;5.72;;
12425;SDS011;6277;49.824;9.562;2024-02-28T01:15:04;9.45;;;6.38;;
12425;SDS011;6277;49.824;9.562;2024-02-28T01:17:29;9.88;;;6.10;;
12425;SDS011;6277;49.824;9.562;2024-02-28T01:19:55;11.10;;;6.63;;
12425;SDS011;6277;49.824;9.562;2024-02-28T01:22:22;10.43;;;7.13;;
12425;SDS011;6277;49.824;9.562;2024-02-28T01:24:47;10.13;;;6.38;;
12425;SDS011;6277;49.824;9.562;2024-02-28T01:27:13;9.88;;;6.68;;
12425;SDS011;6277;49.824;9.562;2024-02-28T01:29:38;9.60;;;6.68;;
12425;SDS011;6277;49.824;9.562;2024-02-28T01:32:04;10.60;;;6.95;;
12425;SDS011;6277;49.824;9.562;2024-02-28T01:34:29;10.35;;;7.20;;
12425;SDS011;6277;49.824;9.562;2024-02-28T01:36:55;10.18;;;7.38;;
12425;SDS011;6277;49.824;9.562;2024-02-28T01:39:20;10.07;;;7.05;;
12425;SDS011;6277;49.824;9.562;2024-02-28T01:41:55;10.00;;;6.13;;
12425;SDS011;6277;49.824;9.562;2024-02-28T01:44:22;10.70;;;6.22;;
12425;SDS011;6277;49.824;9.562;2024-02-28T01:46:47;10.75;;;6.95;;
12425;SDS011;6277;49.824;9.562;2024-02-28T01:49:13;10.18;;;6.85;;
12425;SDS011;6277;49.824;9.562;2024-02-28T01:51:40;10.13;;;6.30;;
12425;SDS011;6277;49.824;9.562;2024-02-28T01:54:06;8.80;;;6.50;;
12425;SDS011;6277;49.824;9.562;2024-02-28T01:56:33;9.85;;;7.03;;
12425;SDS011;6277;49.824;9.562;2024-02-28T01:58:59;7.90;;;6.28;;
12425;SDS011;6277;49.824;9.562;2024-02-28T02:01:26;11.63;;;6.97;;
12425;SDS011;6277;49.824;9.562;2024-02-28T02:03:53;10.98;;;7.45;;
12425;SDS011;6277;49.824;9.562;2024-02-28T02:06:19;10.82;;;6.93;;
12425;SDS011;6277;49.824;9.562;2024-02-28T02:08:45;10.68;;;7.55;;
12425;SDS011;6277;49.824;9.562;2024-02-28T02:11:12;10.65;;;7.40;;
12425;SDS011;6277;49.824;9.562;2024-02-28T02:13:52;10.20;;;6.68;;
12425;SDS011;6277;49.824;9.562;2024-02-28T02:16:19;12.70;;;7.65;;
12425;SDS011;6277;49.824;9.562;2024-02-28T02:18:47;10.60;;;7.43;;
12425;SDS011;6277;49.824;9.562;2024-02-28T02:21:14;13.45;;;9.00;;
12425;SDS011;6277;49.824;9.562;2024-02-28T02:23:43;12.80;;;8.48;;
12425;SDS011;6277;49.824;9.562;2024-02-28T02:26:08;14.10;;;9.23;;
12425;SDS011;6277;49.824;9.562;2024-02-28T02:28:34;12.70;;;9.40;;
12425;SDS011;6277;49.824;9.562;2024-02-28T02:31:00;16.00;;;10.20;;
12425;SDS011;6277;49.824;9.562;2024-02-28T02:33:25;14.18;;;9.70;;
12425;SDS011;6277;49.824;9.562;2024-02-28T02:35:54;13.90;;;9.45;;
12425;SDS011;6277;49.824;9.562;2024-02-28T02:38:19;13.10;;;9.65;;
12425;SDS011;6277;49.824;9.562;2024-02-28T02:40:48;17.33;;;10.60;;
12425;SDS011;6277;49.824;9.562;2024-02-28T02:43:17;14.18;;;9.65;;
12425;SDS011;6277;49.824;9.562;2024-02-28T02:45:43;15.27;;;10.00;;
12425;SDS011;6277;49.824;9.562;2024-02-28T02:48:09;15.35;;;9.85;;
12425;SDS011;6277;49.824;9.562;2024-02-28T02:50:35;12.85;;;9.25;;
12425;SDS011;6277;49.824;9.562;2024-02-28T02:53:02;15.35;;;9.45;;
12425;SDS011;6277;49.824;9.562;2024-02-28T02:55:28;14.05;;;9.32;;
12425;SDS011;6277;49.824;9.562;2024-02-28T02:57:54;14.27;;;9.63;;
12425;SDS011;6277;49.824;9.562;2024-02-28T03:00:20;12.93;;;8.68;;
12425;SDS011;6277;49.824;9.562;2024-02-28T03:02:46;11.52;;;8.18;;
12425;SDS011;6277;49.824;9.562;2024-02-28T03:05:11;13.25;;;9.10;;
12425;SDS011;6277;49.824;9.562;2024-02-28T03:07:37;12.25;;;9.02;;
12425;SDS011;6277;49.824;9.562;2024-02-28T03:10:02;13.82;;;8.82;;
12425;SDS011;6277;49.824;9.562;2024-02-28T03:12:28;13.98;;;9.13;;
12425;SDS011;6277;49.824;9.562;2024-02-28T03:14:54;11.38;;;8.00;;
12425;SDS011;6277;49.824;9.562;2024-02-28T03:17:19;12.70;;;8.80;;
12425;SDS011;6277;49.824;9.562;2024-02-28T03:19:45;12.45;;;8.50;;
12425;SDS011;6277;49.824;9.562;2024-02-28T03:22:11;11.18;;;7.80;;
12425;SDS011;6277;49.824;9.562;2024-02-28T03:24:36;11.75;;;8.43;;
12425;SDS011;6277;49.824;9.562;2024-02-28T03:27:02;10.63;;;7.78;;
12425;SDS011;6277;49.824;9.562;2024-02-28T03:29:27;11.00;;;7.35;;
12425;SDS011;6277;49.824;9.562;2024-02-28T03:31:53;9.70;;;7.35;;
12425;SDS011;6277;49.824;9.562;2024-02-28T03:34:19;11.52;;;8.00;;
12425;SDS011;6277;49.824;9.562;2024-02-28T03:36:44;10.48;;;7.35;;
12425;SDS011;6277;49.824;9.562;2024-02-28T03:39:11;10.75;;;7.60;;
12425;SDS011;6277;49.824;9.562;2024-02-28T03:41:36;11.98;;;7.75;;
12425;SDS011;6277;49.824;9.562;2024-02-28T03:44:03;10.95;;;7.57;;
12425;SDS011;6277;49.824;9.562;2024-02-28T03:46:28;10.02;;;6.97;;
12425;SDS011;6277;49.824;9.562;2024-02-28T03:48:54;11.82;;;7.53;;
12425;SDS011;6277;49.824;9.562;2024-02-28T03:51:20;9.55;;;7.03;;
12425;SDS011;6277;49.824;9.562;2024-02-28T03:53:46;10.23;;;7.63;;
12425;SDS011;6277;49.824;9.562;2024-02-28T03:56:11;10.20;;;7.47;;
12425;SDS011;6277;49.824;9.562;2024-02-28T03:58:37;11.55;;;7.63;;
12425;SDS011;6277;49.824;9.562;2024-02-28T04:01:06;10.02;;;7.45;;
12425;SDS011;6277;49.824;9.562;2024-02-28T04:03:32;9.65;;;7.13;;
12425;SDS011;6277;49.824;9.562;2024-02-28T04:05:57;10.48;;;7.65;;
12425;SDS011;6277;49.824;9.562;2024-02-28T04:08:23;10.35;;;7.05;;
12425;SDS011;6277;49.824;9.562;2024-02-28T04:10:49;10.65;;;7.68;;
12425;SDS011;6277;49.824;9.562;2024-02-28T04:13:16;10.48;;;7.47;;
12425;SDS011;6277;49.824;9.562;2024-02-28T04:15:41;9.15;;;6.65;;
12425;SDS011;6277;49.824;9.562;2024-02-28T04:18:10;9.82;;;6.88;;
12425;SDS011;6277;49.824;9.562;2024-02-28T04:20:36;9.20;;;6.97;;
12425;SDS011;6277;49.824;9.562;2024-02-28T04:23:03;9.73;;;6.93;;
12425;SDS011;6277;49.824;9.562;2024-02-28T04:25:29;9.80;;;6.85;;
12425;SDS011;6277;49.824;9.562;2024-02-28T04:27:54;11.35;;;7.78;;
12425;SDS011;6277;49.824;9.562;2024-02-28T04:30:21;12.07;;;7.35;;
12425;SDS011;6277;49.824;9.562;2024-02-28T04:32:47;11.40;;;7.43;;
12425;SDS011;6277;49.824;9.562;2024-02-28T04:35:13;9.45;;;7.22;;
12425;SDS011;6277;49.824;9.562;2024-02-28T04:37:40;11.43;;;7.93;;
12425;SDS011;6277;49.824;9.562;2024-02-28T04:40:07;12.15;;;7.57;;
12425;SDS011;6277;49.824;9.562;2024-02-28T04:42:33;11.48;;;7.60;;
12425;SDS011;6277;49.824;9.562;2024-02-28T04:44:58;10.73;;;7.68;;
12425;SDS011;6277;49.824;9.562;2024-02-28T04:47:24;11.07;;;7.35;;
12425;SDS011;6277;49.824;9.562;2024-02-28T04:49:49;10.38;;;7.45;;
12425;SDS011;6277;49.824;9.562;2024-02-28T04:52:15;9.50;;;7.10;;
12425;SDS011;6277;49.824;9.562;2024-02-28T04:54:40;10.50;;;6.90;;
12425;SDS011;6277;49.824;9.562;2024-02-28T04:57:06;11.05;;;7.50;;
12425;SDS011;6277;49.824;9.562;2024-02-28T04:59:32;9.15;;;6.53;;
12425;SDS011;6277;49.824;9.562;2024-02-28T05:01:58;10.05;;;6.93;;
12425;SDS011;6277;49.824;9.562;2024-02-28T05:04:23;10.20;;;7.30;;
12425;SDS011;6277;49.824;9.562;2024-02-28T05:06:49;11.25;;;7.68;;
12425;SDS011;6277;49.824;9.562;2024-02-28T05:09:14;11.63;;;8.80;;
12425;SDS011;6277;49.824;9.562;2024-02-28T05:11:40;15.27;;;10.02;;
12425;SDS011;6277;49.824;9.562;2024-02-28T05:14:06;14.38;;;9.65;;
12425;SDS011;6277;49.824;9.562;2024-02-28T05:16:31;11.63;;;8.95;;
12425;SDS011;6277;49.824;9.562;2024-02-28T05:18:57;11.48;;;8.30;;
12425;SDS011;6277;49.824;9.562;2024-02-28T05:21:22;10.55;;;7.65;;
12425;SDS011;6277;49.824;9.562;2024-02-28T05:23:48;11.43;;;7.50;;
12425;SDS011;6277;49.824;9.562;2024-02-28T05:26:14;10.27;;;7.65;;
12425;SDS011;6277;49.824;9.562;2024-02-28T05:28:39;13.07;;;9.15;;
12425;SDS011;6277;49.824;9.562;2024-02-28T05:31:18;12.30;;;8.45;;
12425;SDS011;6277;49.824;9.562;2024-02-28T05:33:50;10.85;;;7.22;;
12425;SDS011;6277;49.824;9.562;2024-02-28T05:36:16;10.10;;;6.60;;
12425;SDS011;6277;49.824;9.562;2024-02-28T05:38:43;12.65;;;8.77;;
12425;SDS011;6277;49.824;9.562;2024-02-28T05:41:08;12.30;;;8.52;;
12425;SDS011;6277;49.824;9.562;2024-02-28T05:43:34;11.50;;;7.88;;
12425;SDS011;6277;49.824;9.562;2024-02-28T05:46:01;12.68;;;9.00;;
12425;SDS011;6277;49.824;9.562;2024-02-28T05:48:26;13.27;;;9.65;;
12425;SDS011;6277;49.824;9.562;2024-02-28T05:50:52;13.32;;;8.88;;
12425;SDS011;6277;49.824;9.562;2024-02-28T05:53:17;12.57;;;8.57;;
12425;SDS011;6277;49.824;9.562;2024-02-28T05:55:44;13.15;;;9.35;;
12425;SDS011;6277;49.824;9.562;2024-02-28T05:58:10;11.80;;;8.35;;
12425;SDS011;6277;49.824;9.562;2024-02-28T06:00:35;13.68;;;9.70;;
12425;SDS011;6277;49.824;9.562;2024-02-28T06:03:01;15.57;;;10.93;;
12425;SDS011;6277;49.824;9.562;2024-02-28T06:05:26;16.73;;;10.48;;
12425;SDS011;6277;49.824;9.562;2024-02-28T06:07:52;16.38;;;10.68;;
12425;SDS011;6277;49.824;9.562;2024-02-28T06:10:17;15.35;;;10.48;;
12425;SDS011;6277;49.824;9.562;2024-02-28T06:12:43;14.52;;;9.70;;
12425;SDS011;6277;49.824;9.562;2024-02-28T06:15:08;12.80;;;8.85;;
12425;SDS011;6277;49.824;9.562;2024-02-28T06:17:34;12.43;;;8.90;;
12425;SDS011;6277;49.824;9.562;2024-02-28T06:19:59;11.13;;;8.50;;
12425;SDS011;6277;49.824;9.562;2024-02-28T06:22:25;12.00;;;8.48;;
12425;SDS011;6277;49.824;9.562;2024-02-28T06:24:50;11.93;;;8.38;;
12425;SDS011;6277;49.824;9.562;2024-02-28T06:27:16;14.82;;;9.15;;
12425;SDS011;6277;49.824;9.562;2024-02-28T06:29:42;14.20;;;8.75;;
12425;SDS011;6277;49.824;9.562;2024-02-28T06:32:07;16.20;;;9.75;;
12425;SDS011;6277;49.824;9.562;2024-02-28T06:34:33;16.83;;;9.68;;
12425;SDS011;6277;49.824;9.562;2024-02-28T06:36:58;14.27;;;8.77;;
12425;SDS011;6277;49.824;9.562;2024-02-28T06:39:24;13.38;;;8.25;;
12425;SDS011;6277;49.824;9.562;2024-02-28T06:41:50;12.10;;;8.10;;
12425;SDS011;6277;49.824;9.562;2024-02-28T06:44:17;10.70;;;7.60;;
12425;SDS011;6277;49.824;9.562;2024-02-28T06:46:43;12.10;;;8.25;;
12425;SDS011;6277;49.824;9.562;2024-02-28T06:49:09;10.45;;;7.53;;
12425;SDS011;6277;49.824;9.562;2024-02-28T06:51:34;11.68;;;7.55;;
12425;SDS011;6277;49.824;9.562;2024-02-28T06:54:00;11.88;;;7.80;;
12425;SDS011;6277;49.824;9.562;2024-02-28T06:56:25;10.52;;;7.32;;
12425;SDS011;6277;49.824;9.562;2024-02-28T06:58:51;11.10;;;7.90;;
12425;SDS011;6277;49.824;9.562;2024-02-28T07:01:17;12.43;;;8.13;;
12425;SDS011;6277;49.824;9.562;2024-02-28T07:03:43;11.23;;;7.88;;
12425;SDS011;6277;49.824;9.562;2024-02-28T07:06:09;12.43;;;8.10;;
12425;SDS011;6277;49.824;9.562;2024-02-28T07:08:34;11.07;;;7.32;;
12425;SDS011;6277;49.824;9.562;2024-02-28T07:11:00;11.05;;;7.13;;
12425;SDS011;6277;49.824;9.562;2024-02-28T07:13:26;8.90;;;6.43;;
12425;SDS011;6277;49.824;9.562;2024-02-28T07:15:52;11.88;;;7.97;;
12425;SDS011;6277;49.824;9.562;2024-02-28T07:18:19;13.23;;;7.97;;
12425;SDS011;6277;49.824;9.562;2024-02-28T07:20:44;11.63;;;7.47;;
12425;SDS011;6277;49.824;9.562;2024-02-28T07:23:10;11.10;;;7.78;;
12425;SDS011;6277;49.824;9.562;2024-02-28T07:25:36;10.88;;;6.93;;
12425;SDS011;6277;49.824;9.562;2024-02-28T07:28:01;11.00;;;7.18;;
12425;SDS011;6277;49.824;9.562;2024-02-28T07:30:30;9.73;;;7.00;;
12425;SDS011;6277;49.824;9.562;2024-02-28T07:32:56;11.20;;;7.68;;
12425;SDS011;6277;49.824;9.562;2024-02-28T07:35:21;8.68;;;6.55;;
12425;SDS011;6277;49.824;9.562;2024-02-28T07:37:48;10.50;;;7.07;;
12425;SDS011;6277;49.824;9.562;2024-02-28T07:40:14;11.57;;;7.72;;
12425;SDS011;6277;49.824;9.562;2024-02-28T07:42:40;10.95;;;7.55;;
12425;SDS011;6277;49.824;9.562;2024-02-28T07:45:05;11.32;;;7.82;;
12425;SDS011;6277;49.824;9.562;2024-02-28T07:47:33;11.32;;;7.85;;
12425;SDS011;6277;49.824;9.562;2024-02-28T07:49:59;10.68;;;7.35;;
12425;SDS011;6277;49.824;9.562;2024-02-28T07:52:24;10.85;;;7.70;;
12425;SDS011;6277;49.824;9.562;2024-02-28T07:54:50;11.85;;;8.07;;
12425;SDS011;6277;49.824;9.562;2024-02-28T07:57:15;12.52;;;8.18;;
12425;SDS011;6277;49.824;9.562;2024-02-28T07:59:41;11.52;;;8.20;;
12425;SDS011;6277;49.824;9.562;2024-02-28T08:02:07;11.40;;;7.53;;
12425;SDS011;6277;49.824;9.562;2024-02-28T08:04:33;10.30;;;7.60;;
12425;SDS011;6277;49.824;9.562;2024-02-28T08:06:59;8.98;;;6.93;;
12425;SDS011;6277;49.824;9.562;2024-02-28T08:09:25;9.70;;;7.32;;
12425;SDS011;6277;49.824;9.562;2024-02-28T08:11:50;11.50;;;7.60;;
12425;SDS011;6277;49.824;9.562;2024-02-28T08:14:16;10.98;;;6.82;;
12425;SDS011;6277;49.824;9.562;2024-02-28T08:16:42;9.27;;;6.90;;
12425;SDS011;6277;49.824;9.562;2024-02-28T08:19:08;9.38;;;6.63;;
12425;SDS011;6277;49.824;9.562;2024-02-28T08:21:33;7.72;;;5.95;;
12425;SDS011;6277;49.824;9.562;2024-02-28T08:23:59;9.23;;;6.65;;
12425;SDS011;6277;49.824;9.562;2024-02-28T08:26:24;9.02;;;6.75;;
12425;SDS011;6277;49.824;9.562;2024-02-28T08:28:50;9.02;;;6.40;;
12425;SDS011;6277;49.824;9.562;2024-02-28T08:31:15;9.68;;;6.50;;
12425;SDS011;6277;49.824;9.562;2024-02-28T08:33:41;10.70;;;6.53;;
12425;SDS011;6277;49.824;9.562;2024-02-28T08:36:07;8.70;;;5.97;;
12425;SDS011;6277;49.824;9.562;2024-02-28T08:38:32;9.00;;;6.88;;
12425;SDS011;6277;49.824;9.562;2024-02-28T08:40:59;8.60;;;6.25;;
12425;SDS011;6277;49.824;9.562;2024-02-28T08:43:25;9.15;;;6.15;;
12425;SDS011;6277;49.824;9.562;2024-02-28T08:45:50;9.25;;;5.95;;
12425;SDS011;6277;49.824;9.562;2024-02-28T08:48:16;8.65;;;6.18;;
12425;SDS011;6277;49.824;9.562;2024-02-28T08:50:42;9.48;;;6.38;;
12425;SDS011;6277;49.824;9.562;2024-02-28T08:53:07;8.98;;;5.57;;
12425;SDS011;6277;49.824;9.562;2024-02-28T08:55:33;8.23;;;5.78;;
12425;SDS011;6277;49.824;9.562;2024-02-28T08:57:58;8.95;;;5.95;;
12425;SDS011;6277;49.824;9.562;2024-02-28T09:00:24;9.07;;;6.22;;
12425;SDS011;6277;49.824;9.562;2024-02-28T09:02:50;8.68;;;6.07;;
12425;SDS011;6277;49.824;9.562;2024-02-28T09:05:15;8.15;;;5.78;;
12425;SDS011;6277;49.824;9.562;2024-02-28T09:07:41;8.77;;;5.55;;
12425;SDS011;6277;49.824;9.562;2024-02-28T09:10:07;8.27;;;5.88;;
12425;SDS011;6277;49.824;9.562;2024-02-28T09:12:33;9.90;;;5.90;;
12425;SDS011;6277;49.824;9.562;2024-02-28T09:14:58;7.70;;;5.40;;
12425;SDS011;6277;49.824;9.562;2024-02-28T09:17:24;7.50;;;5.55;;
12425;SDS011;6277;49.824;9.562;2024-02-28T09:19:50;9.93;;;6.22;;
12425;SDS011;6277;49.824;9.562;2024-02-28T09:22:16;8.32;;;5.82;;
12425;SDS011;6277;49.824;9.562;2024-02-28T09:24:42;9.50;;;5.82;;
12425;SDS011;6277;49.824;9.562;2024-02-28T09:27:08;8.57;;;6.10;;
12425;SDS011;6277;49.824;9.562;2024-02-28T09:29:34;7.22;;;5.65;;
12425;SDS011;6277;49.824;9.562;2024-02-28T09:31:59;9.63;;;6.28;;
12425;SDS011;6277;49.824;9.562;2024-02-28T09:34:25;8.10;;;5.78;;
12425;SDS011;6277;49.824;9.562;2024-02-28T09:36:50;9.13;;;5.80;;
12425;SDS011;6277;49.824;9.562;2024-02-28T09:39:17;8.95;;;6.03;;
12425;SDS011;6277;49.824;9.562;2024-02-28T09:41:42;7.65;;;5.47;;
12425;SDS011;6277;49.824;9.562;2024-02-28T09:44:08;9.48;;;5.70;;
12425;SDS011;6277;49.824;9.562;2024-02-28T09:46:34;7.50;;;5.28;;
12425;SDS011;6277;49.824;9.562;2024-02-28T09:49:06;7.07;;;5.32;;
12425;SDS011;6277;49.824;9.562;2024-02-28T09:51:33;7.80;;;5.30;;
12425;SDS011;6277;49.824;9.562;2024-02-28T09:54:02;6.60;;;5.07;;
12425;SDS011;6277;49.824;9.562;2024-02-28T09:56:29;7.53;;;5.40;;
12425;SDS011;6277;49.824;9.562;2024-02-28T09:58:54;7.20;;;5.40;;
12425;SDS011;6277;49.824;9.562;2024-02-28T10:01:21;7.75;;;5.50;;
12425;SDS011;6277;49.824;9.562;2024-02-28T10:03:47;6.40;;;4.95;;
12425;SDS011;6277;49.824;9.562;2024-02-28T10:06:16;7.30;;;4.82;;
12425;SDS011;6277;49.824;9.562;2024-02-28T10:08:42;7.68;;;5.20;;
12425;SDS011;6277;49.824;9.562;2024-02-28T10:11:07;7.28;;;5.20;;
12425;SDS011;6277;49.824;9.562;2024-02-28T10:13:33;7.43;;;5.03;;
12425;SDS011;6277;49.824;9.562;2024-02-28T10:15:58;8.00;;;5.30;;
12425;SDS011;6277;49.824;9.562;2024-02-28T10:18:25;7.18;;;5.30;;
12425;SDS011;6277;49.824;9.562;2024-02-28T10:20:51;6.60;;;5.03;;
12425;SDS011;6277;49.824;9.562;2024-02-28T10:23:16;6.95;;;5.22;;
12425;SDS011;6277;49.824;9.562;2024-02-28T10:25:45;7.97;;;4.95;;
12425;SDS011;6277;49.824;9.562;2024-02-28T10:28:11;8.82;;;5.05;;
12425;SDS011;6277;49.824;9.562;2024-02-28T10:30:40;7.25;;;5.30;;
12425;SDS011;6277;49.824;9.562;2024-02-28T10:33:10;7.00;;;5.07;;
12425;SDS011;6277;49.824;9.562;2024-02-28T10:35:40;6.63;;;4.90;;
12425;SDS011;6277;49.824;9.562;2024-02-28T10:38:06;6.53;;;4.70;;
12425;SDS011;6277;49.824;9.562;2024-02-28T10:40:31;7.35;;;4.70;;
12425;SDS011;6277;49.824;9.562;2024-02-28T10:42:57;6.35;;;4.70;;
12425;SDS011;6277;49.824;9.562;2024-02-28T10:45:24;6.93;;;4.88;;
12425;SDS011;6277;49.824;9.562;2024-02-28T10:47:54;6.18;;;4.45;;
12425;SDS011;6277;49.824;9.562;2024-02-28T10:50:20;5.68;;;4.03;;
12425;SDS011;6277;49.824;9.562;2024-02-28T10:52:46;6.10;;;4.20;;
12425;SDS011;6277;49.824;9.562;2024-02-28T10:55:15;5.72;;;4.05;;
12425;SDS011;6277;49.824;9.562;2024-02-28T10:57:45;6.47;;;4.25;;
12425;SDS011;6277;49.824;9.562;2024-02-28T11:00:18;5.15;;;3.80;;
12425;SDS011;6277;49.824;9.562;2024-02-28T11:02:44;5.90;;;3.67;;
12425;SDS011;6277;49.824;9.562;2024-02-28T11:05:10;4.93;;;3.47;;
12425;SDS011;6277;49.824;9.562;2024-02-28T11:07:40;4.53;;;3.55;;
12425;SDS011;6277;49.824;9.562;2024-02-28T11:10:07;5.18;;;4.10;;
12425;SDS011;6277;49.824;9.562;2024-02-28T11:12:33;4.03;;;3.30;;
12425;SDS011;6277;49.824;9.562;2024-02-28T11:14:59;5.03;;;3.70;;
12425;SDS011;6277;49.824;9.562;2024-02-28T11:17:27;5.40;;;3.60;;
12425;SDS011;6277;49.824;9.562;2024-02-28T11:19:54;4.97;;;3.63;;
12425;SDS011;6277;49.824;9.562;2024-02-28T11:22:20;5.53;;;3.40;;
12425;SDS011;6277;49.824;9.562;2024-02-28T11:24:48;7.32;;;3.00;;
12425;SDS011;6277;49.824;9.562;2024-02-28T11:27:15;4.45;;;2.63;;
12425;SDS011;6277;49.824;9.562;2024-02-28T11:29:41;2.85;;;2.40;;
12425;SDS011;6277;49.824;9.562;2024-02-28T11:32:07;2.95;;;2.15;;
12425;SDS011;6277;49.824;9.562;2024-02-28T11:34:35;3.13;;;2.10;;
12425;SDS011;6277;49.824;9.562;2024-02-28T11:37:02;3.88;;;2.45;;
12425;SDS011;6277;49.824;9.562;2024-02-28T11:39:28;4.80;;;2.63;;
12425;SDS011;6277;49.824;9.562;2024-02-28T11:41:55;3.22;;;2.20;;
12425;SDS011;6277;49.824;9.562;2024-02-28T11:44:20;4.22;;;2.75;;
12425;SDS011;6277;49.824;9.562;2024-02-28T11:46:46;3.17;;;2.50;;
12425;SDS011;6277;49.824;9.562;2024-02-28T11:49:14;3.53;;;2.03;;
12425;SDS011;6277;49.824;9.562;2024-02-28T11:51:40;2.42;;;2.00;;
12425;SDS011;6277;49.824;9.562;2024-02-28T11:54:07;3.58;;;2.17;;
12425;SDS011;6277;49.824;9.562;2024-02-28T11:56:35;3.17;;;2.33;;
12425;SDS011;6277;49.824;9.562;2024-02-28T11:59:01;2.78;;;2.10;;
12425;SDS011;6277;49.824;9.562;2024-02-28T12:01:35;2.83;;;2.00;;
12425;SDS011;6277;49.824;9.562;2024-02-28T12:06:34;2.15;;;1.60;;
12425;SDS011;6277;49.824;9.562;2024-02-28T12:09:01;2.33;;;1.65;;
12425;SDS011;6277;49.824;9.562;2024-02-28T12:11:28;2.65;;;1.58;;
12425;SDS011;6277;49.824;9.562;2024-02-28T12:13:57;3.03;;;1.75;;
12425;SDS011;6277;49.824;9.562;2024-02-28T12:16:24;2.47;;;1.80;;
12425;SDS011;6277;49.824;9.562;2024-02-28T12:18:51;2.92;;;1.88;;
12425;SDS011;6277;49.824;9.562;2024-02-28T12:21:17;3.38;;;2.22;;
12425;SDS011;6277;49.824;9.562;2024-02-28T12:23:43;3.53;;;2.15;;
12425;SDS011;6277;49.824;9.562;2024-02-28T12:26:09;2.60;;;1.77;;
12425;SDS011;6277;49.824;9.562;2024-02-28T12:28:34;2.38;;;1.95;;
12425;SDS011;6277;49.824;9.562;2024-02-28T12:31:00;4.80;;;1.80;;
12425;SDS011;6277;49.824;9.562;2024-02-28T12:33:25;3.58;;;2.10;;
12425;SDS011;6277;49.824;9.562;2024-02-28T12:35:51;2.63;;;1.98;;
12425;SDS011;6277;49.824;9.562;2024-02-28T12:38:17;3.17;;;1.52;;
12425;SDS011;6277;49.824;9.562;2024-02-28T12:40:42;2.50;;;1.75;;
12425;SDS011;6277;49.824;9.562;2024-02-28T12:43:08;2.72;;;1.92;;
12425;SDS011;6277;49.824;9.562;2024-02-28T12:45:33;2.88;;;1.77;;
12425;SDS011;6277;49.824;9.562;2024-02-28T12:47:59;2.40;;;1.77;;
12425;SDS011;6277;49.824;9.562;2024-02-28T12:50:26;2.55;;;1.83;;
12425;SDS011;6277;49.824;9.562;2024-02-28T12:52:52;2.13;;;1.70;;
12425;SDS011;6277;49.824;9.562;2024-02-28T12:55:18;5.65;;;2.08;;
12425;SDS011;6277;49.824;9.562;2024-02-28T12:57:45;2.72;;;1.77;;
12425;SDS011;6277;49.824;9.562;2024-02-28T13:00:11;2.42;;;1.80;;
12425;SDS011;6277;49.824;9.562;2024-02-28T13:02:38;2.00;;;1.42;;
12425;SDS011;6277;49.824;9.562;2024-02-28T13:05:03;2.47;;;1.50;;
12425;SDS011;6277;49.824;9.562;2024-02-28T13:07:29;3.97;;;1.90;;
12425;SDS011;6277;49.824;9.562;2024-02-28T13:09:55;1.95;;;1.75;;
12425;SDS011;6277;49.824;9.562;2024-02-28T13:12:21;2.10;;;1.63;;
12425;SDS011;6277;49.824;9.562;2024-02-28T13:14:47;2.40;;;1.65;;
12425;SDS011;6277;49.824;9.562;2024-02-28T13:17:13;2.13;;;1.48;;
12425;SDS011;6277;49.824;9.562;2024-02-28T13:19:38;1.75;;;1.42;;
12425;SDS011;6277;49.824;9.562;2024-02-28T13:22:04;3.65;;;1.77;;
12425;SDS011;6277;49.824;9.562;2024-02-28T13:24:30;2.10;;;1.65;;
12425;SDS011;6277;49.824;9.562;2024-02-28T13:26:55;3.28;;;1.50;;
12425;SDS011;6277;49.824;9.562;2024-02-28T13:29:21;2.47;;;1.50;;
12425;SDS011;6277;49.824;9.562;2024-02-28T13:31:46;2.17;;;1.58;;
12425;SDS011;6277;49.824;9.562;2024-02-28T13:34:12;2.50;;;1.67;;
12425;SDS011;6277;49.824;9.562;2024-02-28T13:36:38;2.88;;;1.65;;
12425;SDS011;6277;49.824;9.562;2024-02-28T13:39:07;2.03;;;1.60;;
12425;SDS011;6277;49.824;9.562;2024-02-28T13:41:34;3.17;;;1.90;;
12425;SDS011;6277;49.824;9.562;2024-02-28T13:43:59;2.05;;;1.60;;
12425;SDS011;6277;49.824;9.562;2024-02-28T13:46:25;2.40;;;1.80;;
12425;SDS011;6277;49.824;9.562;2024-02-28T13:48:51;2.45;;;1.75;;
12425;SDS011;6277;49.824;9.562;2024-02-28T13:51:16;2.30;;;1.85;;
12425;SDS011;6277;49.824;9.562;2024-02-28T13:53:42;2.65;;;2.20;;
12425;SDS011;6277;49.824;9.562;2024-02-28T13:56:07;3.30;;;1.90;;
12425;SDS011;6277;49.824;9.562;2024-02-28T13:58:33;2.72;;;1.90;;
12425;SDS011;6277;49.824;9.562;2024-02-28T14:00:58;2.85;;;1.88;;
12425;SDS011;6277;49.824;9.562;2024-02-28T14:03:24;3.05;;;1.88;;
12425;SDS011;6277;49.824;9.562;2024-02-28T14:05:50;2.72;;;1.73;;
12425;SDS011;6277;49.824;9.562;2024-02-28T14:08:16;3.17;;;2.00;;
12425;SDS011;6277;49.824;9.562;2024-02-28T14:10:42;2.35;;;1.90;;
12425;SDS011;6277;49.824;9.562;2024-02-28T14:13:07;2.70;;;1.52;;
12425;SDS011;6277;49.824;9.562;2024-02-28T14:15:33;2.60;;;1.75;;
12425;SDS011;6277;49.824;9.562;2024-02-28T14:18:01;2.60;;;1.98;;
12425;SDS011;6277;49.824;9.562;2024-02-28T14:20:28;2.78;;;1.85;;
12425;SDS011;6277;49.824;9.562;2024-02-28T14:22:54;2.78;;;2.20;;
12425;SDS011;6277;49.824;9.562;2024-02-28T14:25:20;2.28;;;1.90;;
12425;SDS011;6277;49.824;9.562;2024-02-28T14:27:46;2.78;;;2.20;;
12425;SDS011;6277;49.824;9.562;2024-02-28T14:30:12;2.63;;;2.08;;
12425;SDS011;6277;49.824;9.562;2024-02-28T14:32:39;2.80;;;1.90;;
12425;SDS011;6277;49.824;9.562;2024-02-28T14:35:06;2.30;;;1.85;;
12425;SDS011;6277;49.824;9.562;2024-02-28T14:37:32;3.03;;;2.30;;
12425;SDS011;6277;49.824;9.562;2024-02-28T14:39:59;2.35;;;1.95;;
12425;SDS011;6277;49.824;9.562;2024-02-28T14:42:26;2.90;;;2.10;;
12425;SDS011;6277;49.824;9.562;2024-02-28T14:44:52;2.70;;;1.90;;
12425;SDS011;6277;49.824;9.562;2024-02-28T14:47:18;2.90;;;1.80;;
12425;SDS011;6277;49.824;9.562;2024-02-28T14:49:45;1.92;;;1.70;;
12425;SDS011;6277;49.824;9.562;2024-02-28T14:52:10;1.98;;;1.50;;